createdAt,value
2023-11-15T00:01:08.136Z,99649.78
2023-11-15T00:03:35.289Z,99655.91
2023-11-15T00:06:02.711Z,99653.38
2023-11-15T00:08:29.895Z,99653.44
2023-11-15T00:10:56.830Z,99653.47
2023-11-15T00:13:24.365Z,99661.34
2023-11-15T00:15:52.145Z,99662.25
2023-11-15T00:18:19.134Z,99663.16
2023-11-15T00:20:46.384Z,99663.22
2023-11-15T00:23:13.352Z,99670.22
2023-11-15T00:25:40.249Z,99678.13
2023-11-15T00:28:07.147Z,99677.28
2023-11-15T00:30:34.058Z,99681.69
2023-11-15T00:33:01.117Z,99685.16
2023-11-15T00:35:28.303Z,99680.00
2023-11-15T00:37:55.690Z,99683.53
2023-11-15T00:40:22.686Z,99686.13
2023-11-15T00:42:50.339Z,99690.50
2023-11-15T00:45:17.376Z,99696.59
2023-11-15T00:47:44.441Z,99707.94
2023-11-15T00:50:11.678Z,99701.94
2023-11-15T00:52:38.733Z,99707.09
2023-11-15T00:55:07.453Z,99711.50
2023-11-15T00:57:35.686Z,99708.06
2023-11-15T01:00:08.286Z,99708.97
2023-11-15T01:02:44.017Z,99709.03
2023-11-15T01:05:11.023Z,99712.56
2023-11-15T01:07:37.923Z,99721.25
2023-11-15T01:10:09.345Z,99728.25
2023-11-15T01:12:36.330Z,99728.31
2023-11-15T01:15:06.021Z,99730.09
2023-11-15T01:17:35.493Z,99733.63
2023-11-15T01:20:04.702Z,99735.41
2023-11-15T01:22:31.614Z,99737.19
2023-11-15T01:24:58.843Z,99735.47
2023-11-15T01:27:28.960Z,99749.38
2023-11-15T01:29:55.947Z,99751.13
2023-11-15T01:32:23.586Z,99756.34
2023-11-15T01:34:50.656Z,99763.31
2023-11-15T01:37:18.387Z,99766.78
2023-11-15T01:39:45.357Z,99760.72
2023-11-15T01:42:12.808Z,99764.22
2023-11-15T01:44:39.835Z,99763.38
2023-11-15T01:47:07.070Z,99758.09
2023-11-15T01:49:33.992Z,99765.91
2023-11-15T01:52:01.027Z,99764.22
2023-11-15T01:54:30.830Z,99760.69
2023-11-15T01:56:57.809Z,99767.69
2023-11-15T01:59:24.866Z,99767.69
2023-11-15T02:01:54.072Z,99764.22
2023-11-15T02:04:21.099Z,99773.00
2023-11-15T02:06:48.175Z,99775.56
2023-11-15T02:09:15.639Z,99787.72
2023-11-15T02:11:42.869Z,99781.66
2023-11-15T02:14:10.901Z,99791.22
2023-11-15T02:16:38.202Z,99789.53
2023-11-15T02:19:05.611Z,99793.81
2023-11-15T02:21:33.412Z,99795.56
2023-11-15T02:24:00.478Z,99799.91
2023-11-15T02:26:27.464Z,99802.53
2023-11-15T02:28:55.320Z,99811.25
2023-11-15T02:31:22.376Z,99811.25
2023-11-15T02:33:49.375Z,99819.06
2023-11-15T02:36:16.299Z,99820.75
2023-11-15T02:38:44.154Z,99826.84
2023-11-15T02:41:11.280Z,99828.59
2023-11-15T02:43:38.394Z,99824.19
2023-11-15T02:46:06.009Z,99835.47
2023-11-15T02:48:33.565Z,99844.13
2023-11-15T02:51:00.812Z,99847.66
2023-11-15T02:53:27.843Z,99849.41
2023-11-15T02:55:54.843Z,99845.09
2023-11-15T02:58:21.836Z,99854.66
2023-11-15T03:00:48.790Z,99860.78
2023-11-15T03:03:15.978Z,99864.28
2023-11-15T03:05:43.351Z,99875.59
2023-11-15T03:08:10.492Z,99878.16
2023-11-15T03:10:38.600Z,99879.94
2023-11-15T03:13:05.598Z,99884.28
2023-11-15T03:15:33.240Z,99896.50
2023-11-15T03:18:00.405Z,99894.75
2023-11-15T03:20:27.583Z,99904.34
2023-11-15T03:22:54.888Z,99895.66
2023-11-15T03:25:22.561Z,99900.91
2023-11-15T03:27:49.612Z,99907.88
2023-11-15T03:30:16.880Z,99902.66
2023-11-15T03:32:47.069Z,99913.97
2023-11-15T03:35:14.132Z,99913.97
2023-11-15T03:37:42.851Z,99923.56
2023-11-15T03:40:10.290Z,99921.84
2023-11-15T03:42:38.202Z,99926.19
2023-11-15T03:45:06.954Z,99934.03
2023-11-15T03:47:34.304Z,99928.88
2023-11-15T03:50:01.552Z,99946.19
2023-11-15T03:52:28.567Z,99946.19
2023-11-15T03:54:55.583Z,99946.19
2023-11-15T03:57:22.637Z,99943.63
2023-11-15T03:59:50.087Z,99946.19
2023-11-15T04:02:17.194Z,99942.78
2023-11-15T04:04:44.379Z,99955.75
2023-11-15T04:07:11.499Z,99955.75
2023-11-15T04:09:40.020Z,99965.34
2023-11-15T04:12:07.294Z,99971.44
2023-11-15T04:14:35.601Z,99975.78
2023-11-15T04:17:02.648Z,99976.63
2023-11-15T04:19:29.548Z,99976.63
2023-11-15T04:22:08.309Z,99977.50
2023-11-15T04:24:40.133Z,99990.59
2023-11-15T04:27:07.857Z,99996.63
2023-11-15T04:29:35.039Z,100001.84
2023-11-15T04:32:02.074Z,100006.16
2023-11-15T04:34:29.004Z,100006.19
2023-11-15T04:36:55.954Z,100012.25
2023-11-15T04:39:23.454Z,100014.00
2023-11-15T04:41:50.541Z,100024.44
2023-11-15T04:44:17.741Z,100028.78
2023-11-15T04:46:44.689Z,100025.28
2023-11-15T04:49:11.624Z,100026.16
2023-11-15T04:51:38.504Z,100038.31
2023-11-15T04:54:06.939Z,100029.63
2023-11-15T04:56:36.773Z,100034.81
2023-11-15T04:59:04.145Z,100040.03
2023-11-15T05:01:31.075Z,100049.59
2023-11-15T05:03:58.246Z,100051.34
2023-11-15T05:06:25.293Z,100048.72
2023-11-15T05:08:52.277Z,100054.84
2023-11-15T05:11:19.188Z,100067.84
2023-11-15T05:13:46.119Z,100063.53
2023-11-15T05:16:13.161Z,100073.06
2023-11-15T05:18:40.075Z,100083.50
2023-11-15T05:21:07.906Z,100085.25
2023-11-15T05:23:35.646Z,100097.41
2023-11-15T05:26:02.838Z,100103.50
2023-11-15T05:28:29.805Z,100108.72
2023-11-15T05:30:56.753Z,100098.31
2023-11-15T05:33:23.724Z,100113.06
2023-11-15T05:35:50.662Z,100113.06
2023-11-15T05:38:19.069Z,100120.03
2023-11-15T05:40:46.442Z,100124.38
2023-11-15T05:43:13.342Z,100133.03
2023-11-15T05:45:40.254Z,100133.03
2023-11-15T05:48:07.552Z,100143.47
2023-11-15T05:50:34.608Z,100149.56
2023-11-15T05:53:01.541Z,100152.13
2023-11-15T05:55:29.675Z,100157.34
2023-11-15T05:57:56.642Z,100172.09
2023-11-15T06:00:23.647Z,100171.22
2023-11-15T06:02:52.274Z,100173.88
2023-11-15T06:05:20.817Z,100186.88
2023-11-15T06:07:47.763Z,100188.66
2023-11-15T06:10:15.526Z,100202.50
2023-11-15T06:12:42.594Z,100203.41
2023-11-15T06:15:10.926Z,100216.44
2023-11-15T06:17:40.737Z,100214.66
2023-11-15T06:20:10.731Z,100227.72
2023-11-15T06:22:39.480Z,100220.78
2023-11-15T06:25:10.084Z,100239.00
2023-11-15T06:27:37.504Z,100239.94
2023-11-15T06:30:06.104Z,100252.97
2023-11-15T06:32:33.319Z,100253.81
2023-11-15T06:35:00.289Z,100259.09
2023-11-15T06:37:27.205Z,100280.78
2023-11-15T06:39:54.100Z,100272.13
2023-11-15T06:42:22.424Z,100285.13
2023-11-15T06:44:49.394Z,100290.31
2023-11-15T06:47:16.360Z,100300.72
2023-11-15T06:49:43.969Z,100304.19
2023-11-15T06:52:10.917Z,100305.06
2023-11-15T06:54:38.059Z,100312.03
2023-11-15T06:57:07.588Z,100316.38
2023-11-15T06:59:34.914Z,100325.03
2023-11-15T07:02:01.897Z,100329.34
2023-11-15T07:04:29.455Z,100333.69
2023-11-15T07:06:56.926Z,100339.78
2023-11-15T07:09:23.842Z,100345.84
2023-11-15T07:11:52.954Z,100352.81
2023-11-15T07:14:21.330Z,100355.41
2023-11-15T07:16:59.609Z,100353.66
2023-11-15T07:19:26.936Z,100370.16
2023-11-15T07:21:58.211Z,100377.06
2023-11-15T07:24:29.051Z,100386.66
2023-11-15T07:26:56.035Z,100383.16
2023-11-15T07:29:22.972Z,100380.56
2023-11-15T07:31:54.177Z,100396.19
2023-11-15T07:34:23.397Z,100399.66
2023-11-15T07:36:51.253Z,100411.78
2023-11-15T07:39:20.145Z,100417.03
2023-11-15T07:41:47.298Z,100420.47
2023-11-15T07:44:18.402Z,100427.41
2023-11-15T07:46:53.166Z,100433.50
2023-11-15T07:49:21.617Z,100448.25
2023-11-15T07:51:49.237Z,100457.78
2023-11-15T07:54:16.183Z,100452.56
2023-11-15T07:56:43.875Z,100459.53
2023-11-15T07:59:12.242Z,100458.66
2023-11-15T08:01:44.927Z,100465.56
2023-11-15T08:04:15.033Z,100476.84
2023-11-15T08:06:43.637Z,100473.38
2023-11-15T08:09:25.102Z,100490.75
2023-11-15T08:11:56.785Z,100491.63
2023-11-15T08:14:24.281Z,100492.50
2023-11-15T08:16:51.382Z,100490.75
2023-11-15T08:19:21.862Z,100495.97
2023-11-15T08:21:49.346Z,100508.09
2023-11-15T08:24:22.454Z,100514.19
2023-11-15T08:26:59.494Z,100519.41
2023-11-15T08:29:26.482Z,100523.75
2023-11-15T08:31:53.366Z,100534.19
2023-11-15T08:34:24.104Z,100536.78
2023-11-15T08:36:51.928Z,100544.59
2023-11-15T08:39:18.978Z,100551.56
2023-11-15T08:41:47.750Z,100545.50
2023-11-15T08:44:15.930Z,100553.31
2023-11-15T08:46:44.084Z,100561.13
2023-11-15T08:49:13.720Z,100555.06
2023-11-15T08:51:42.092Z,100568.94
2023-11-15T08:54:10.878Z,100576.75
2023-11-15T08:56:44.171Z,100582.84
2023-11-15T08:59:15.441Z,100577.63
2023-11-15T09:01:43.686Z,100591.53
2023-11-15T09:04:13.803Z,100590.66
2023-11-15T09:06:47.886Z,100595.00
2023-11-15T09:09:16.199Z,100598.50
2023-11-15T09:11:44.234Z,100608.94
2023-11-15T09:14:11.656Z,100608.03
2023-11-15T09:16:38.632Z,100602.84
2023-11-15T09:19:05.903Z,100613.28
2023-11-15T09:21:34.649Z,100605.44
2023-11-15T09:24:02.381Z,100613.28
2023-11-15T09:26:29.344Z,100622.81
2023-11-15T09:28:56.239Z,100624.56
2023-11-15T09:31:24.007Z,100622.84
2023-11-15T09:33:53.189Z,100636.72
2023-11-15T09:36:20.435Z,100635.00
2023-11-15T09:38:47.544Z,100645.41
2023-11-15T09:41:14.490Z,100651.47
2023-11-15T09:43:43.086Z,100655.81
2023-11-15T09:46:14.007Z,100661.88
2023-11-15T09:48:53.099Z,100666.22
2023-11-15T09:51:31.119Z,100661.03
2023-11-15T09:54:08.489Z,100674.03
2023-11-15T09:56:46.532Z,100672.31
2023-11-15T09:59:14.393Z,100664.53
2023-11-15T10:01:46.588Z,100672.38
2023-11-15T10:04:27.458Z,100675.84
2023-11-15T10:07:05.263Z,100678.47
2023-11-15T10:09:38.163Z,100681.94
2023-11-15T10:12:07.421Z,100684.56
2023-11-15T10:14:36.597Z,100691.50
2023-11-15T10:17:08.094Z,100690.63
2023-11-15T10:19:35.654Z,100700.19
2023-11-15T10:22:06.716Z,100699.31
2023-11-15T10:24:35.873Z,100705.41
2023-11-15T10:27:09.378Z,100701.94
2023-11-15T10:29:40.171Z,100704.53
2023-11-15T10:32:07.824Z,100712.38
2023-11-15T10:34:48.254Z,100713.22
2023-11-15T10:37:15.185Z,100718.44
2023-11-15T10:39:45.125Z,100722.78
2023-11-15T10:42:14.942Z,100726.28
2023-11-15T10:44:48.284Z,100732.34
2023-11-15T10:47:20.948Z,100735.84
2023-11-15T10:49:59.086Z,100734.09
2023-11-15T10:52:27.472Z,100738.44
2023-11-15T10:54:58.472Z,100738.44
2023-11-15T10:57:29.107Z,100744.53
2023-11-15T10:59:59.192Z,100738.44
2023-11-15T11:02:30.744Z,100741.91
2023-11-15T11:04:58.225Z,100742.78
2023-11-15T11:07:40.484Z,100748.88
2023-11-15T11:10:19.737Z,100751.47
2023-11-15T11:12:47.933Z,100758.44
2023-11-15T11:15:28.928Z,100761.94
2023-11-15T11:18:17.257Z,100762.81
2023-11-15T11:21:01.121Z,100764.56
2023-11-15T11:23:28.195Z,100771.50
2023-11-15T11:26:34.150Z,100774.09
2023-11-15T11:29:04.840Z,100768.03
2023-11-15T11:31:32.101Z,100781.94
2023-11-15T11:34:10.421Z,100785.44
2023-11-15T11:36:54.536Z,100778.44
2023-11-15T11:39:47.480Z,100783.69
2023-11-15T11:42:27.583Z,100785.44
2023-11-15T11:44:58.657Z,100788.91
2023-11-15T11:47:26.251Z,100793.25
2023-11-15T11:49:53.866Z,100795.88
2023-11-15T11:52:20.973Z,100795.84
2023-11-15T11:54:53.157Z,100795.00
2023-11-15T11:57:27.866Z,100805.41
2023-11-15T12:00:12.180Z,100808.91
2023-11-15T12:02:41.639Z,100815.03
2023-11-15T12:05:11.462Z,100812.44
2023-11-15T12:07:46.401Z,100814.16
2023-11-15T12:10:15.766Z,100814.16
2023-11-15T12:13:05.978Z,100820.25
2023-11-15T12:15:37.132Z,100810.69
2023-11-15T12:18:04.543Z,100821.97
2023-11-15T12:20:39.640Z,100826.34
2023-11-15T12:23:11.322Z,100834.19
2023-11-15T12:25:56.249Z,100832.41
2023-11-15T12:28:31.893Z,100825.44
2023-11-15T12:31:05.204Z,100835.00
2023-11-15T12:33:35.149Z,100829.78
2023-11-15T12:36:02.597Z,100828.06
2023-11-15T12:38:30.658Z,100825.44
2023-11-15T12:41:07.495Z,100836.78
2023-11-15T12:43:35.286Z,100842.88
2023-11-15T12:46:19.017Z,100851.59
2023-11-15T12:48:49.100Z,100855.06
2023-11-15T12:51:16.544Z,100843.72
2023-11-15T12:53:43.771Z,100860.28
2023-11-15T12:56:18.663Z,100862.03
2023-11-15T12:58:46.280Z,100864.63
2023-11-15T13:01:17.837Z,100873.31
2023-11-15T13:03:46.357Z,100877.66
2023-11-15T13:06:15.470Z,100870.75
2023-11-15T13:08:49.714Z,100866.38
2023-11-15T13:11:22.158Z,100863.78
2023-11-15T13:13:50.848Z,100874.19
2023-11-15T13:16:19.866Z,100868.97
2023-11-15T13:18:49.641Z,100869.88
2023-11-15T13:21:19.506Z,100866.31
2023-11-15T13:23:48.105Z,100873.28
2023-11-15T13:26:16.058Z,100873.28
2023-11-15T13:28:45.473Z,100880.25
2023-11-15T13:31:16.148Z,100881.97
2023-11-15T13:33:49.214Z,100882.84
2023-11-15T13:36:19.737Z,100882.88
2023-11-15T13:38:47.733Z,100885.47
2023-11-15T13:41:18.702Z,100885.47
2023-11-15T13:43:48.752Z,100895.91
2023-11-15T13:46:15.972Z,100898.50
2023-11-15T13:48:43.329Z,100903.75
2023-11-15T13:51:12.590Z,100905.50
2023-11-15T13:53:42.774Z,100904.63
2023-11-15T13:56:10.013Z,100901.13
2023-11-15T13:58:37.653Z,100900.25
2023-11-15T14:01:06.426Z,100916.75
2023-11-15T14:03:33.956Z,100923.72
2023-11-15T14:06:04.402Z,100922.84
2023-11-15T14:11:13.788Z,100935.91
2023-11-15T14:13:43.107Z,100932.44
2023-11-15T14:16:10.430Z,100945.50
2023-11-15T14:18:37.519Z,100962.06
2023-11-15T14:21:06.051Z,100938.59
2023-11-15T14:23:34.636Z,100943.84
2023-11-15T14:26:01.793Z,100943.81
2023-11-15T14:28:28.724Z,100944.63
2023-11-15T14:30:56.230Z,100943.75
2023-11-15T14:33:23.325Z,100947.22
2023-11-15T14:35:50.553Z,100949.81
2023-11-15T14:38:17.566Z,100953.28
2023-11-15T14:40:45.495Z,100964.59
2023-11-15T14:43:15.754Z,100960.25
2023-11-15T14:45:44.308Z,100963.75
2023-11-15T14:48:11.804Z,100970.72
2023-11-15T14:50:40.888Z,100975.94
2023-11-15T14:53:30.382Z,100979.41
2023-11-15T14:55:57.725Z,100975.94
2023-11-15T14:58:26.514Z,100982.03
2023-11-15T15:00:53.673Z,100982.00
2023-11-15T15:03:23.385Z,100994.22
2023-11-15T15:05:51.978Z,100995.06
2023-11-15T15:08:22.459Z,100996.81
2023-11-15T15:10:54.112Z,100999.41
2023-11-15T15:13:21.334Z,101009.00
2023-11-15T15:15:48.255Z,101002.94
2023-11-15T15:18:19.446Z,101010.75
2023-11-15T15:20:52.225Z,101003.78
2023-11-15T15:23:19.519Z,101005.50
2023-11-15T15:25:46.932Z,101005.50
2023-11-15T15:28:15.627Z,101003.75
2023-11-15T15:30:43.982Z,101002.88
2023-11-15T15:33:11.757Z,101008.09
2023-11-15T15:35:39.359Z,101008.94
2023-11-15T15:38:07.295Z,101022.00
2023-11-15T15:40:39.481Z,101028.06
2023-11-15T15:43:06.557Z,101025.47
2023-11-15T15:45:33.509Z,101027.19
2023-11-15T15:48:01.212Z,101035.03
2023-11-15T15:50:28.462Z,101040.25
2023-11-15T15:52:56.189Z,101034.16
2023-11-15T15:55:23.483Z,101038.50
2023-11-15T15:57:50.757Z,101039.38
2023-11-15T16:00:18.322Z,101041.97
2023-11-15T16:02:47.591Z,101046.31
2023-11-15T16:05:17.370Z,101052.38
2023-11-15T16:07:44.734Z,101047.19
2023-11-15T16:10:12.328Z,101042.81
2023-11-15T16:12:39.265Z,101049.78
2023-11-15T16:15:08.004Z,101052.41
2023-11-15T16:17:36.014Z,101055.00
2023-11-15T16:20:08.777Z,101054.09
2023-11-15T16:22:35.837Z,101055.84
2023-11-15T16:25:02.750Z,101064.53
2023-11-15T16:27:34.480Z,101061.94
2023-11-15T16:30:10.577Z,101058.44
2023-11-15T16:32:37.607Z,101052.34
2023-11-15T16:35:06.571Z,101064.53
2023-11-15T16:37:36.775Z,101068.00
2023-11-15T16:40:06.449Z,101068.88
2023-11-15T16:42:33.796Z,101066.25
2023-11-15T16:45:02.061Z,101068.81
2023-11-15T16:47:29.477Z,101059.22
2023-11-15T16:49:58.100Z,101070.53
2023-11-15T16:52:25.033Z,101077.47
2023-11-15T16:54:52.013Z,101080.94
2023-11-15T16:57:18.970Z,101081.78
2023-11-15T16:59:46.067Z,101081.75
2023-11-15T17:02:13.270Z,101078.28
2023-11-15T17:04:40.219Z,101090.47
2023-11-15T17:07:07.975Z,101089.56
2023-11-15T17:09:37.192Z,101093.91
2023-11-15T17:12:05.267Z,101104.28
2023-11-15T17:14:32.536Z,101095.63
2023-11-15T17:17:02.275Z,101094.75
2023-11-15T17:19:29.220Z,101102.63
2023-11-15T17:21:58.852Z,101093.91
2023-11-15T17:24:26.992Z,101100.03
2023-11-15T17:26:54.157Z,101101.75
2023-11-15T17:29:21.476Z,101103.47
2023-11-15T17:31:48.535Z,101104.34
2023-11-15T17:34:15.653Z,101109.56
2023-11-15T17:36:42.681Z,101106.03
2023-11-15T17:39:13.030Z,101099.09
2023-11-15T17:41:40.102Z,101105.19
2023-11-15T17:44:12.129Z,101113.00
2023-11-15T17:46:43.828Z,101109.50
2023-11-15T17:49:12.023Z,101106.03
2023-11-15T17:51:39.267Z,101113.81
2023-11-15T17:54:08.310Z,101119.03
2023-11-15T17:56:35.536Z,101108.63
2023-11-15T17:59:03.895Z,101108.63
2023-11-15T18:01:34.599Z,101092.06
2023-11-15T18:04:06.753Z,101100.78
2023-11-15T18:06:33.749Z,101101.69
2023-11-15T18:09:00.815Z,101101.69
2023-11-15T18:11:27.757Z,101100.84
2023-11-15T18:13:56.648Z,101095.59
2023-11-15T18:16:25.171Z,101099.94
2023-11-15T18:18:55.813Z,101094.72
2023-11-15T18:21:23.349Z,101102.50
2023-11-15T18:26:23.635Z,101106.84
2023-11-15T18:28:50.601Z,101102.47
2023-11-15T18:31:17.599Z,101108.59
2023-11-15T18:33:44.631Z,101106.84
2023-11-15T18:36:12.035Z,101101.63
2023-11-15T18:38:40.443Z,101100.78
2023-11-15T18:41:08.688Z,101106.84
2023-11-15T18:43:36.402Z,101105.09
2023-11-15T18:46:03.642Z,101094.59
2023-11-15T18:48:30.691Z,101100.72
2023-11-15T18:50:57.881Z,101098.97
2023-11-15T18:53:24.949Z,101104.19
2023-11-15T18:55:51.876Z,101103.31
2023-11-15T18:58:19.587Z,101095.50
2023-11-15T19:00:46.523Z,101096.34
2023-11-15T19:03:13.573Z,101102.44
2023-11-15T19:05:43.288Z,101090.25
2023-11-15T19:08:12.104Z,101092.84
2023-11-15T19:10:39.031Z,101086.72
2023-11-15T19:13:06.767Z,101098.06
2023-11-15T19:15:35.179Z,101098.97
2023-11-15T19:18:02.880Z,101100.72
2023-11-15T19:20:31.397Z,101100.72
2023-11-15T19:22:59.189Z,101103.31
2023-11-15T19:25:26.897Z,101106.81
2023-11-15T19:27:54.273Z,101098.06
2023-11-15T19:30:21.328Z,101101.53
2023-11-15T19:32:48.604Z,101091.94
2023-11-15T19:35:18.060Z,101091.91
2023-11-15T19:37:45.014Z,101091.03
2023-11-15T19:40:12.568Z,101091.03
2023-11-15T19:42:40.033Z,101096.22
2023-11-15T19:45:09.236Z,101099.69
2023-11-15T19:47:36.399Z,101109.25
2023-11-15T19:50:03.754Z,101110.09
2023-11-15T19:52:30.801Z,101115.28
2023-11-15T19:54:58.524Z,101117.00
2023-11-15T19:59:55.165Z,101110.00
2023-11-15T20:02:23.810Z,101112.63
2023-11-15T20:04:54.255Z,101116.06
2023-11-15T20:07:21.274Z,101120.44
2023-11-15T20:09:48.223Z,101125.66
2023-11-15T20:12:16.303Z,101114.34
2023-11-15T20:14:44.339Z,101128.25
2023-11-15T20:17:11.260Z,101122.16
2023-11-15T20:19:38.835Z,101119.56
2023-11-15T20:22:06.121Z,101124.81
2023-11-15T20:24:34.482Z,101119.56
2023-11-15T20:27:01.445Z,101111.72
2023-11-15T20:29:28.378Z,101113.50
2023-11-15T20:31:55.284Z,101113.50
2023-11-15T20:34:22.235Z,101111.75
2023-11-15T20:36:50.307Z,101106.53
2023-11-15T20:39:22.243Z,101116.97
2023-11-15T20:41:53.132Z,101106.44
2023-11-15T20:44:20.654Z,101103.03
2023-11-15T20:46:47.801Z,101107.38
2023-11-15T20:49:14.948Z,101102.19
2023-11-15T20:51:45.674Z,101097.78
2023-11-15T20:54:12.650Z,101096.00
2023-11-15T20:56:40.018Z,101092.50
2023-11-15T20:59:08.794Z,101091.66
2023-11-15T21:01:35.739Z,101090.78
2023-11-15T21:04:08.523Z,101089.00
2023-11-15T21:06:36.975Z,101096.84
2023-11-15T21:09:09.948Z,101084.69
2023-11-15T21:11:39.854Z,101093.38
2023-11-15T21:14:08.752Z,101087.25
2023-11-15T21:16:40.182Z,101081.19
2023-11-15T21:19:09.321Z,101080.31
2023-11-15T21:21:38.050Z,101078.56
2023-11-15T21:24:09.067Z,101074.19
2023-11-15T21:26:36.276Z,101068.94
2023-11-15T21:29:09.500Z,101065.47
2023-11-15T21:31:38.189Z,101067.16
2023-11-15T21:34:06.910Z,101061.06
2023-11-15T21:36:34.974Z,101053.22
2023-11-15T21:39:03.744Z,101048.88
2023-11-15T21:41:31.412Z,101047.97
2023-11-15T21:44:00.584Z,101052.25
2023-11-15T21:46:29.767Z,101049.66
2023-11-15T21:48:58.260Z,101048.78
2023-11-15T21:51:25.562Z,101035.72
2023-11-15T21:53:54.568Z,101043.56
2023-11-15T21:56:22.199Z,101043.53
2023-11-15T21:58:50.090Z,101046.97
2023-11-15T22:01:17.110Z,101043.47
2023-11-15T22:03:44.307Z,101044.38
2023-11-15T22:06:11.820Z,101042.59
2023-11-15T22:08:40.028Z,101035.66
2023-11-15T22:11:07.547Z,101034.78
2023-11-15T22:13:34.686Z,101039.94
2023-11-15T22:16:01.812Z,101034.63
2023-11-15T22:18:30.411Z,101042.47
2023-11-15T22:20:58.246Z,101031.19
2023-11-15T22:23:25.720Z,101035.53
2023-11-15T22:25:52.817Z,101033.78
2023-11-15T22:28:19.918Z,101034.66
2023-11-15T22:30:47.732Z,101040.75
2023-11-15T22:33:14.800Z,101043.38
2023-11-15T22:35:48.828Z,101047.72
2023-11-15T22:38:16.285Z,101045.09
2023-11-15T22:40:43.239Z,101049.44
2023-11-15T22:43:10.174Z,101047.72
2023-11-15T22:45:38.012Z,101041.63
2023-11-15T22:48:05.541Z,101029.47
2023-11-15T22:50:32.478Z,101031.22
2023-11-15T22:52:59.397Z,101030.31
2023-11-15T22:55:26.357Z,101027.69
2023-11-15T22:57:53.268Z,101017.28
2023-11-15T23:00:33.328Z,101009.41
2023-11-15T23:03:10.611Z,101007.66
2023-11-15T23:05:40.059Z,101003.31
2023-11-15T23:08:07.682Z,100996.34
2023-11-15T23:10:40.923Z,100993.66
2023-11-15T23:13:07.898Z,100995.38
2023-11-15T23:15:34.954Z,100996.19
2023-11-15T23:18:02.129Z,100997.91
2023-11-15T23:20:30.739Z,101003.91
2023-11-15T23:22:58.168Z,101003.03
2023-11-15T23:25:30.021Z,100998.72
2023-11-15T23:27:57.460Z,100996.94
2023-11-15T23:30:25.217Z,100987.44
2023-11-15T23:32:55.576Z,100978.72
2023-11-15T23:35:23.222Z,100974.44
2023-11-15T23:37:50.616Z,100972.69
2023-11-15T23:40:18.962Z,100983.09
2023-11-15T23:42:47.499Z,100975.25
2023-11-15T23:45:14.819Z,100975.25
2023-11-15T23:47:41.858Z,100974.44
2023-11-15T23:50:09.821Z,100977.91
2023-11-15T23:52:36.813Z,100970.09
2023-11-15T23:55:04.876Z,100964.88
2023-11-15T23:57:33.134Z,100961.41
